Few Clouds Current Weather (METAR) For Amsterdam Schiphol Airport

All times on the weather descriptions are local

Observed at 01:55 - (30 days ago)

Few Clouds

12°C

Few Clouds
Clouds: Few Clouds at 3,200ft
Wind: 260° at 06 knots
Visibility: Greater than 10km
QNH: 1017
Dew Point: 9°C
Runways with a headwind: Runway 24, Runway 27, Runways 18L/C/R

Sunrise Today: 06:52
Sunset Today: 20:28

Forecast Weather (TAF) For Amsterdam Schiphol Airport

Issued at 02:00 - (28 days ago)


Runways with a headwind: Unable to determine, wind is clam

Forecast valid until 02:00 on Wednesday

METAR/TAF RAW METAR / TAF

EHAM 012355Z 26006KT 9999 FEW032 12/09 Q1017 NOSIG

Weather Widget

Put weather from any of our airports on your website with our weather widget.

Find Another Search

Airport Search


Please Wait Please Wait - Loading
Close
Close

Login

Username:

Password:

Remember Me:

Remember me on this computer

Forgotten your password? Get a reset password sent to your registered e-mail address

Close

User Private Message

Subject:

Message: